createdAt,value
2022-12-25T00:00:21.161Z,87.57
2022-12-25T00:01:44.934Z,87.79
2022-12-25T00:02:53.588Z,87.75
2022-12-25T00:03:56.657Z,88.03
2022-12-25T00:04:59.042Z,88.34
2022-12-25T00:06:01.274Z,88.48
2022-12-25T00:07:03.745Z,88.93
2022-12-25T00:08:06.247Z,89.04
2022-12-25T00:09:08.818Z,89.27
2022-12-25T00:10:11.882Z,89.53
2022-12-25T00:11:18.109Z,89.63
2022-12-25T00:12:21.841Z,89.72
2022-12-25T00:13:24.168Z,89.62
2022-12-25T00:14:26.202Z,89.78
2022-12-25T00:15:29.764Z,90.23
2022-12-25T00:16:33.552Z,90.42
2022-12-25T00:17:35.904Z,90.55
2022-12-25T00:18:38.040Z,90.81
2022-12-25T00:19:41.549Z,91.01
2022-12-25T00:20:44.386Z,91.39
2022-12-25T00:21:47.398Z,91.11
2022-12-25T00:22:49.472Z,91.18
2022-12-25T00:23:56.650Z,91.42
2022-12-25T00:24:59.179Z,91.40
2022-12-25T00:26:03.837Z,91.04
2022-12-25T00:27:06.569Z,91.09
2022-12-25T00:28:09.044Z,91.00
2022-12-25T00:29:13.355Z,90.88
2022-12-25T00:30:16.345Z,90.77
2022-12-25T00:31:18.974Z,90.28
2022-12-25T00:32:21.680Z,90.46
2022-12-25T00:33:25.494Z,90.12
2022-12-25T00:34:27.828Z,90.09
2022-12-25T00:35:30.345Z,90.16
2022-12-25T00:36:37.766Z,90.20
2022-12-25T00:37:36.700Z,90.30
2022-12-25T00:38:40.333Z,90.27
2022-12-25T00:39:42.492Z,90.48
2022-12-25T00:40:44.925Z,90.59
2022-12-25T00:42:05.349Z,90.43
2022-12-25T00:43:08.877Z,90.37
2022-12-25T00:44:13.224Z,90.20
2022-12-25T00:45:16.940Z,90.15
2022-12-25T00:46:19.336Z,90.31
2022-12-25T00:47:21.806Z,90.40
2022-12-25T00:48:29.030Z,90.34
2022-12-25T00:49:32.317Z,90.73
2022-12-25T00:50:37.339Z,91.02
2022-12-25T00:51:39.628Z,91.16
2022-12-25T00:52:41.818Z,91.47
2022-12-25T00:53:46.021Z,91.82
2022-12-25T00:54:48.235Z,92.02
2022-12-25T00:55:55.355Z,92.04
2022-12-25T00:56:57.590Z,92.38
2022-12-25T00:57:59.520Z,93.02
2022-12-25T00:59:02.706Z,93.47
2022-12-25T01:00:07.316Z,93.28
2022-12-25T01:01:13.401Z,93.36
2022-12-25T01:02:26.710Z,93.60
2022-12-25T01:03:31.135Z,94.09
2022-12-25T01:04:34.253Z,94.54
2022-12-25T01:05:37.332Z,94.62
2022-12-25T01:06:41.071Z,94.41
2022-12-25T01:07:43.815Z,94.50
2022-12-25T01:09:04.298Z,94.65
2022-12-25T01:10:24.403Z,94.79
2022-12-25T01:11:28.218Z,94.57
2022-12-25T01:12:32.828Z,94.97
2022-12-25T01:13:36.890Z,94.80
2022-12-25T01:14:39.305Z,94.77
2022-12-25T01:15:41.439Z,94.81
2022-12-25T01:16:44.317Z,95.07
2022-12-25T01:17:47.487Z,95.16
2022-12-25T01:18:50.181Z,95.07
2022-12-25T01:19:54.651Z,94.96
2022-12-25T01:21:07.044Z,94.85
2022-12-25T01:22:09.178Z,94.91
2022-12-25T01:23:11.426Z,94.99
2022-12-25T01:24:14.543Z,94.33
2022-12-25T01:25:16.574Z,94.40
2022-12-25T01:26:20.634Z,94.31
2022-12-25T01:27:22.915Z,93.71
2022-12-25T01:28:25.085Z,93.79
2022-12-25T01:29:27.581Z,93.47
2022-12-25T01:30:31.000Z,93.08
2022-12-25T01:31:35.201Z,93.09
2022-12-25T01:32:37.771Z,93.04
2022-12-25T01:33:41.793Z,93.25
2022-12-25T01:34:43.904Z,93.15
2022-12-25T01:35:46.636Z,93.27
2022-12-25T01:36:48.880Z,93.71
2022-12-25T01:37:51.611Z,93.65
2022-12-25T01:38:55.800Z,93.73
2022-12-25T01:39:58.316Z,93.82
2022-12-25T01:41:00.530Z,93.82
2022-12-25T01:42:03.636Z,93.95
2022-12-25T01:43:25.118Z,94.06
2022-12-25T01:44:40.267Z,94.10
2022-12-25T01:45:44.137Z,94.00
2022-12-25T01:46:48.384Z,93.43
2022-12-25T01:47:51.267Z,93.76
2022-12-25T01:48:58.885Z,93.92
2022-12-25T01:50:01.087Z,94.10
2022-12-25T01:51:07.745Z,93.95
2022-12-25T01:52:26.017Z,93.91
2022-12-25T01:53:29.009Z,94.04
2022-12-25T01:54:37.834Z,94.20
2022-12-25T01:55:43.177Z,94.16
2022-12-25T01:56:49.502Z,93.83
2022-12-25T01:57:51.765Z,93.72
2022-12-25T01:58:55.494Z,93.56
2022-12-25T02:00:00.154Z,93.58
2022-12-25T02:01:02.519Z,93.25
2022-12-25T02:02:05.559Z,92.84
2022-12-25T02:03:08.658Z,92.74
2022-12-25T02:04:38.201Z,92.80
2022-12-25T02:05:41.551Z,92.72
2022-12-25T02:06:44.362Z,92.84
2022-12-25T02:07:47.979Z,92.86
2022-12-25T02:08:51.715Z,92.78
2022-12-25T02:09:54.139Z,92.57
2022-12-25T02:10:56.646Z,92.46
2022-12-25T02:11:59.385Z,92.29
2022-12-25T02:13:04.925Z,91.63
2022-12-25T02:14:07.332Z,91.59
2022-12-25T02:15:13.533Z,91.52
2022-12-25T02:16:20.495Z,91.16
2022-12-25T02:17:51.919Z,91.13
2022-12-25T02:18:57.937Z,91.02
2022-12-25T02:20:20.786Z,90.83
2022-12-25T02:21:32.903Z,91.00
2022-12-25T02:23:08.472Z,91.09
2022-12-25T02:24:20.503Z,91.09
2022-12-25T02:25:29.851Z,91.39
2022-12-25T02:26:59.959Z,91.54
2022-12-25T02:28:11.658Z,91.45
2022-12-25T02:29:47.989Z,91.50
2022-12-25T02:30:57.721Z,91.30
2022-12-25T02:32:03.495Z,91.64
2022-12-25T02:33:27.618Z,92.05
2022-12-25T02:35:52.956Z,92.37
2022-12-25T02:37:06.704Z,92.35
2022-12-25T02:38:12.688Z,92.52
2022-12-25T02:39:55.489Z,92.73
2022-12-25T02:41:01.536Z,92.85
2022-12-25T02:42:07.499Z,92.34
2022-12-25T02:43:31.548Z,92.44
2022-12-25T02:44:55.096Z,92.43
2022-12-25T02:46:22.294Z,92.62
2022-12-25T02:47:37.231Z,93.19
2022-12-25T02:49:01.727Z,93.50
2022-12-25T02:50:24.744Z,93.72
2022-12-25T02:51:48.119Z,93.76
2022-12-25T02:53:12.008Z,93.58
2022-12-25T02:54:36.910Z,93.79
2022-12-25T02:56:00.323Z,93.60
2022-12-25T02:57:24.497Z,93.84
2022-12-25T02:58:47.090Z,93.46
2022-12-25T03:00:10.923Z,93.68
2022-12-25T03:01:35.736Z,93.67
2022-12-25T03:03:00.603Z,93.99
2022-12-25T03:04:26.156Z,94.12
2022-12-25T03:05:49.887Z,94.23
2022-12-25T03:07:05.359Z,94.16
2022-12-25T03:08:11.177Z,93.61
2022-12-25T03:09:39.215Z,93.68
2022-12-25T03:11:07.714Z,93.25
2022-12-25T03:12:21.832Z,93.67
2022-12-25T03:13:33.264Z,93.75
2022-12-25T03:14:54.368Z,94.23
2022-12-25T03:16:15.535Z,94.02
2022-12-25T03:17:18.219Z,94.33
2022-12-25T03:18:23.972Z,94.08
2022-12-25T03:19:51.456Z,94.32
2022-12-25T03:21:12.963Z,94.32
2022-12-25T03:22:37.300Z,94.32
2022-12-25T03:24:01.595Z,94.63
2022-12-25T03:25:23.058Z,94.49
2022-12-25T03:26:45.349Z,94.39
2022-12-25T03:27:53.130Z,94.49
2022-12-25T03:28:55.344Z,94.53
2022-12-25T03:30:16.303Z,94.51
2022-12-25T03:31:25.084Z,94.46
2022-12-25T03:32:40.307Z,94.45
2022-12-25T03:34:11.331Z,94.60
2022-12-25T03:35:29.492Z,94.26
2022-12-25T03:38:11.907Z,94.05
2022-12-25T03:39:22.776Z,94.26
2022-12-25T03:40:47.241Z,94.70
2022-12-25T03:42:12.402Z,94.87
2022-12-25T03:43:42.942Z,94.92
2022-12-25T03:45:26.079Z,94.75
2022-12-25T03:46:39.865Z,94.38
2022-12-25T03:47:47.742Z,94.58
2022-12-25T03:49:13.147Z,94.62
2022-12-25T03:50:39.163Z,94.64
2022-12-25T03:52:03.502Z,94.59
2022-12-25T03:53:28.201Z,94.45
2022-12-25T03:54:51.764Z,94.51
2022-12-25T03:56:14.320Z,94.45
2022-12-25T03:57:34.892Z,94.43
2022-12-25T03:58:55.943Z,94.44
2022-12-25T04:00:17.527Z,94.75
2022-12-25T04:01:39.691Z,95.17
2022-12-25T04:03:00.687Z,95.33
2022-12-25T04:04:21.676Z,95.89
2022-12-25T04:05:42.067Z,96.21
2022-12-25T04:07:03.102Z,96.27
2022-12-25T04:08:23.898Z,96.26
2022-12-25T04:09:44.726Z,96.35
2022-12-25T04:11:07.863Z,96.15
2022-12-25T04:12:28.681Z,96.41
2022-12-25T04:13:49.476Z,96.50
2022-12-25T04:15:10.434Z,96.55
2022-12-25T04:16:31.421Z,96.23
2022-12-25T04:17:52.353Z,96.14
2022-12-25T04:19:13.216Z,96.46
2022-12-25T04:20:33.947Z,96.83
2022-12-25T04:21:54.363Z,97.01
2022-12-25T04:23:15.447Z,97.09
2022-12-25T04:24:36.177Z,97.09
2022-12-25T04:25:56.472Z,96.70
2022-12-25T04:27:17.435Z,96.48
2022-12-25T04:28:37.831Z,96.42
2022-12-25T04:29:58.656Z,96.57
2022-12-25T04:31:05.995Z,96.66
2022-12-25T04:32:27.169Z,96.52
2022-12-25T04:33:47.913Z,96.85
2022-12-25T04:35:08.466Z,97.00
2022-12-25T04:36:12.146Z,97.08
2022-12-25T04:37:14.557Z,97.03
2022-12-25T04:38:18.469Z,97.26
2022-12-25T04:39:23.414Z,97.10
2022-12-25T04:40:25.861Z,97.38
2022-12-25T04:41:28.201Z,97.37
2022-12-25T04:42:30.330Z,97.59
2022-12-25T04:43:32.494Z,97.68
2022-12-25T04:44:35.554Z,97.33
2022-12-25T04:45:37.753Z,97.36
2022-12-25T04:46:40.015Z,97.40
2022-12-25T04:47:42.246Z,97.38
2022-12-25T04:48:44.366Z,97.17
2022-12-25T04:49:47.125Z,97.26
2022-12-25T04:50:49.901Z,97.21
2022-12-25T04:51:52.019Z,97.10
2022-12-25T04:52:54.269Z,97.00
2022-12-25T04:53:56.596Z,96.68
2022-12-25T04:54:58.617Z,96.81
2022-12-25T04:56:01.636Z,97.13
2022-12-25T04:57:04.259Z,97.32
2022-12-25T04:58:06.744Z,97.29
2022-12-25T04:59:08.959Z,97.30
2022-12-25T05:00:12.537Z,97.57
2022-12-25T05:01:16.183Z,97.41
2022-12-25T05:02:18.672Z,97.58
2022-12-25T05:03:21.099Z,97.79
2022-12-25T05:04:24.164Z,97.98
2022-12-25T05:05:26.623Z,98.03
2022-12-25T05:06:28.980Z,98.17
2022-12-25T05:07:32.706Z,98.03
2022-12-25T05:08:36.457Z,98.04
2022-12-25T05:09:40.699Z,98.21
2022-12-25T05:10:43.175Z,98.42
2022-12-25T05:11:45.398Z,97.90
2022-12-25T05:12:47.624Z,97.80
2022-12-25T05:13:49.863Z,97.69
2022-12-25T05:14:52.171Z,97.67
2022-12-25T05:15:54.345Z,97.54
2022-12-25T05:16:57.277Z,97.29
2022-12-25T05:17:59.505Z,96.71
2022-12-25T05:19:01.625Z,96.71
2022-12-25T05:20:05.681Z,96.79
2022-12-25T05:21:08.888Z,96.65
2022-12-25T05:22:11.078Z,96.52
2022-12-25T05:23:13.145Z,96.88
2022-12-25T05:24:15.253Z,97.02
2022-12-25T05:25:17.269Z,96.85
2022-12-25T05:26:22.525Z,97.02
2022-12-25T05:27:24.679Z,96.94
2022-12-25T05:28:26.721Z,96.92
2022-12-25T05:29:29.942Z,97.31
2022-12-25T05:30:33.504Z,97.09
2022-12-25T05:31:35.805Z,97.06
2022-12-25T05:32:39.044Z,97.39
2022-12-25T05:33:41.213Z,97.58
2022-12-25T05:34:43.320Z,97.39
2022-12-25T05:35:45.478Z,96.96
2022-12-25T05:36:47.673Z,96.96
2022-12-25T05:37:49.672Z,96.93
2022-12-25T05:38:51.720Z,96.97
2022-12-25T05:39:53.748Z,96.97
2022-12-25T05:40:55.865Z,97.38
2022-12-25T05:41:58.028Z,96.28
2022-12-25T05:43:00.326Z,96.28
2022-12-25T05:44:03.587Z,96.48
2022-12-25T05:45:07.002Z,96.50
2022-12-25T05:46:10.667Z,96.39
2022-12-25T05:47:13.200Z,96.59
2022-12-25T05:48:15.825Z,96.59
2022-12-25T05:49:17.944Z,96.52
2022-12-25T05:50:21.352Z,96.20
2022-12-25T05:51:24.636Z,95.97
2022-12-25T05:52:32.643Z,95.88
2022-12-25T05:53:36.463Z,95.92
2022-12-25T05:54:38.862Z,94.94
2022-12-25T05:55:46.223Z,94.71
2022-12-25T05:56:48.751Z,94.62
2022-12-25T05:57:52.218Z,95.12
2022-12-25T05:58:54.531Z,95.16
2022-12-25T05:59:57.428Z,94.86
2022-12-25T06:00:59.761Z,94.54
2022-12-25T06:02:01.977Z,94.24
2022-12-25T06:03:04.761Z,94.16
2022-12-25T06:04:12.154Z,94.04
2022-12-25T06:05:10.957Z,94.04
2022-12-25T06:06:15.326Z,94.41
2022-12-25T06:07:17.479Z,94.75
2022-12-25T06:08:20.309Z,94.75
2022-12-25T06:09:23.474Z,94.79
2022-12-25T06:10:25.857Z,94.91
2022-12-25T06:11:27.988Z,94.07
2022-12-25T06:12:30.128Z,93.62
2022-12-25T06:13:33.641Z,93.57
2022-12-25T06:14:36.187Z,93.96
2022-12-25T06:15:40.010Z,93.97
2022-12-25T06:16:42.691Z,94.06
2022-12-25T06:17:45.158Z,94.20
2022-12-25T06:18:51.485Z,94.67
2022-12-25T06:19:54.280Z,95.05
2022-12-25T06:20:56.706Z,95.25
2022-12-25T06:21:58.758Z,95.44
2022-12-25T06:23:01.912Z,95.79
2022-12-25T06:24:04.440Z,95.43
2022-12-25T06:25:07.992Z,95.06
2022-12-25T06:26:13.846Z,95.08
2022-12-25T06:27:15.965Z,94.50
2022-12-25T06:28:17.867Z,94.49
2022-12-25T06:29:22.365Z,94.63
2022-12-25T06:30:25.049Z,94.65
2022-12-25T06:31:27.449Z,93.99
2022-12-25T06:32:30.622Z,93.99
2022-12-25T06:33:33.009Z,94.28
2022-12-25T06:34:35.551Z,93.88
2022-12-25T06:35:39.752Z,94.06
2022-12-25T06:36:44.160Z,93.84
2022-12-25T06:37:46.842Z,93.68
2022-12-25T06:38:50.684Z,93.52
2022-12-25T06:39:52.878Z,93.60
2022-12-25T06:40:55.328Z,93.65
2022-12-25T06:41:57.640Z,93.32
2022-12-25T06:42:59.761Z,93.20
2022-12-25T06:44:02.022Z,93.12
2022-12-25T06:45:06.338Z,93.44
2022-12-25T06:46:12.358Z,93.32
2022-12-25T06:47:14.913Z,93.78
2022-12-25T06:48:16.870Z,94.04
2022-12-25T06:49:19.359Z,94.42
2022-12-25T06:50:21.445Z,94.33
2022-12-25T06:51:26.841Z,94.91
2022-12-25T06:52:34.705Z,94.97
2022-12-25T06:53:40.395Z,95.32
2022-12-25T06:54:43.040Z,95.47
2022-12-25T06:55:45.503Z,95.76
2022-12-25T06:56:48.217Z,95.87
2022-12-25T06:57:50.231Z,95.49
2022-12-25T06:58:55.363Z,95.24
2022-12-25T06:59:58.442Z,95.14
2022-12-25T07:01:04.831Z,95.44
2022-12-25T07:02:10.794Z,95.08
2022-12-25T07:03:16.874Z,95.32
2022-12-25T07:04:31.839Z,95.84
2022-12-25T07:05:34.636Z,96.20
2022-12-25T07:06:37.796Z,96.15
2022-12-25T07:07:39.964Z,96.20
2022-12-25T07:08:42.487Z,96.23
2022-12-25T07:09:45.500Z,96.45
2022-12-25T07:10:47.746Z,96.40
2022-12-25T07:11:49.856Z,96.20
2022-12-25T07:12:51.953Z,95.70
2022-12-25T07:13:54.542Z,96.51
2022-12-25T07:14:56.697Z,96.51
2022-12-25T07:16:00.826Z,96.92
2022-12-25T07:17:03.569Z,97.28
2022-12-25T07:18:06.754Z,97.16
2022-12-25T07:19:10.571Z,96.48
2022-12-25T07:20:12.846Z,96.42
2022-12-25T07:21:18.626Z,96.52
2022-12-25T07:22:22.092Z,96.22
2022-12-25T07:23:25.353Z,95.63
2022-12-25T07:24:27.541Z,95.50
2022-12-25T07:25:36.884Z,95.85
2022-12-25T07:26:34.300Z,96.01
2022-12-25T07:27:36.470Z,95.42
2022-12-25T07:28:40.403Z,95.51
2022-12-25T07:29:42.723Z,95.48
2022-12-25T07:30:44.831Z,94.94
2022-12-25T07:31:47.367Z,95.11
2022-12-25T07:32:51.135Z,95.16
2022-12-25T07:33:54.980Z,94.83
2022-12-25T07:34:57.626Z,95.00
2022-12-25T07:36:00.666Z,95.09
2022-12-25T07:37:02.984Z,95.09
2022-12-25T07:38:05.428Z,95.02
2022-12-25T07:39:09.920Z,95.08
2022-12-25T07:40:14.665Z,95.14
2022-12-25T07:41:17.325Z,95.26
2022-12-25T07:42:23.404Z,95.70
2022-12-25T07:43:23.617Z,95.70
2022-12-25T07:44:25.712Z,95.56
2022-12-25T07:45:27.954Z,95.34
2022-12-25T07:46:30.651Z,95.41
2022-12-25T07:47:32.830Z,95.15
2022-12-25T07:48:36.151Z,95.09
2022-12-25T07:49:38.216Z,95.24
2022-12-25T07:50:40.825Z,94.92
2022-12-25T07:51:42.836Z,94.96
2022-12-25T07:52:46.465Z,94.88
2022-12-25T07:53:50.851Z,95.45
2022-12-25T07:54:53.601Z,95.81
2022-12-25T07:56:05.199Z,95.81
2022-12-25T07:57:07.964Z,94.74
2022-12-25T07:58:10.936Z,94.67
2022-12-25T07:59:13.026Z,94.82
2022-12-25T08:00:16.937Z,94.89
2022-12-25T08:01:22.694Z,94.79
2022-12-25T08:02:28.591Z,94.74
2022-12-25T08:03:33.487Z,94.59
2022-12-25T08:04:36.054Z,94.37
2022-12-25T08:05:38.068Z,93.89
2022-12-25T08:06:40.746Z,93.91
2022-12-25T08:07:43.041Z,93.75
2022-12-25T08:08:45.284Z,93.56
2022-12-25T08:09:47.905Z,93.83
2022-12-25T08:10:50.125Z,94.04
2022-12-25T08:11:52.460Z,93.59
2022-12-25T08:12:56.463Z,93.21
2022-12-25T08:13:58.632Z,93.41
2022-12-25T08:15:00.672Z,93.43
2022-12-25T08:16:07.456Z,93.18
2022-12-25T08:17:09.564Z,93.08
2022-12-25T08:18:11.844Z,92.60
2022-12-25T08:19:14.502Z,92.18
2022-12-25T08:20:17.447Z,91.82
2022-12-25T08:21:20.049Z,91.93
2022-12-25T08:22:24.160Z,92.20
2022-12-25T08:23:26.852Z,92.47
2022-12-25T08:24:29.963Z,92.49
2022-12-25T08:25:32.894Z,92.62
2022-12-25T08:26:35.128Z,92.46
2022-12-25T08:27:37.437Z,92.62
2022-12-25T08:28:40.147Z,92.41
2022-12-25T08:29:45.171Z,92.39
2022-12-25T08:30:47.783Z,92.06
2022-12-25T08:31:49.969Z,92.02
2022-12-25T08:32:52.157Z,92.01
2022-12-25T08:33:57.173Z,92.01
2022-12-25T08:35:00.717Z,91.98
2022-12-25T08:36:04.896Z,91.45
2022-12-25T08:37:07.994Z,91.20
2022-12-25T08:38:10.437Z,91.25
2022-12-25T08:39:13.204Z,91.25
2022-12-25T08:40:15.579Z,90.99
2022-12-25T08:41:19.288Z,90.82
2022-12-25T08:42:21.342Z,90.35
2022-12-25T08:43:23.540Z,90.49
2022-12-25T08:44:26.755Z,90.30
2022-12-25T08:45:34.698Z,90.66
2022-12-25T08:46:33.268Z,90.91
2022-12-25T08:47:35.916Z,90.92
2022-12-25T08:48:40.024Z,90.91
2022-12-25T08:49:42.147Z,90.59
2022-12-25T08:50:46.539Z,90.38
2022-12-25T08:51:48.495Z,89.71
2022-12-25T08:52:50.576Z,89.85
2022-12-25T08:53:57.209Z,90.01
2022-12-25T08:55:01.432Z,90.03
2022-12-25T08:56:04.026Z,89.38
2022-12-25T08:57:06.515Z,89.33
2022-12-25T08:58:11.991Z,89.36
2022-12-25T08:59:14.772Z,88.93
2022-12-25T09:00:18.032Z,88.68
2022-12-25T09:01:20.401Z,88.80
2022-12-25T09:02:22.737Z,88.99
2022-12-25T09:03:26.781Z,89.06
2022-12-25T09:04:29.362Z,88.94
2022-12-25T09:05:36.207Z,88.88
2022-12-25T09:06:38.287Z,88.55
2022-12-25T09:07:40.401Z,88.59
2022-12-25T09:08:48.682Z,88.22
2022-12-25T09:09:48.792Z,87.90
2022-12-25T09:10:51.196Z,87.52
2022-12-25T09:11:54.640Z,86.87
2022-12-25T09:12:56.908Z,86.57
2022-12-25T09:14:00.546Z,86.64
2022-12-25T09:15:04.309Z,87.04
2022-12-25T09:16:10.761Z,87.35
2022-12-25T09:17:13.723Z,87.41
2022-12-25T09:18:15.923Z,87.31
2022-12-25T09:19:19.158Z,87.25
2022-12-25T09:20:21.662Z,87.51
2022-12-25T09:21:24.132Z,88.09
2022-12-25T09:22:26.470Z,88.32
2022-12-25T09:23:29.083Z,88.69
2022-12-25T09:24:32.332Z,88.62
2022-12-25T09:25:34.415Z,89.39
2022-12-25T09:26:38.655Z,89.66
2022-12-25T09:27:42.999Z,89.79
2022-12-25T09:28:51.201Z,89.89
2022-12-25T09:29:49.851Z,89.93
2022-12-25T09:30:54.177Z,89.79
2022-12-25T09:31:56.312Z,89.65
2022-12-25T09:32:59.511Z,89.83
2022-12-25T09:34:01.559Z,90.01
2022-12-25T09:35:03.937Z,89.56
2022-12-25T09:36:08.657Z,89.69
2022-12-25T09:37:11.128Z,89.82
2022-12-25T09:38:13.304Z,89.65
2022-12-25T09:39:16.571Z,89.63
2022-12-25T09:40:22.531Z,89.79
2022-12-25T09:41:41.131Z,89.88
2022-12-25T09:42:43.787Z,89.87
2022-12-25T09:44:04.837Z,89.62
2022-12-25T09:45:13.615Z,89.62
2022-12-25T09:46:22.985Z,89.34
2022-12-25T09:47:31.950Z,89.40
2022-12-25T09:48:37.901Z,89.51
2022-12-25T09:49:53.144Z,89.38
2022-12-25T09:51:05.536Z,89.13
2022-12-25T09:52:14.286Z,89.01
2022-12-25T09:53:24.201Z,89.07
2022-12-25T09:54:48.140Z,89.24
2022-12-25T09:56:07.009Z,89.29
2022-12-25T09:57:12.635Z,89.31
2022-12-25T09:58:15.492Z,89.56
2022-12-25T09:59:26.774Z,89.67
2022-12-25T10:00:43.339Z,89.59
2022-12-25T10:02:02.227Z,89.55
2022-12-25T10:03:11.962Z,89.30
2022-12-25T10:04:55.452Z,89.17
2022-12-25T10:06:29.128Z,88.82
2022-12-25T10:07:53.874Z,88.49
2022-12-25T10:10:38.379Z,87.76
2022-12-25T10:12:09.941Z,87.83
2022-12-25T10:13:48.275Z,87.79
2022-12-25T10:15:09.329Z,87.44
2022-12-25T10:16:39.835Z,87.20
2022-12-25T10:18:09.072Z,87.11
2022-12-25T10:19:36.630Z,87.27
2022-12-25T10:20:54.774Z,88.07
2022-12-25T10:22:00.679Z,88.41
2022-12-25T10:23:06.661Z,88.37
2022-12-25T10:24:27.856Z,88.45
2022-12-25T10:25:31.334Z,88.63
2022-12-25T10:26:34.926Z,88.60
2022-12-25T10:27:40.910Z,88.60
2022-12-25T10:28:53.174Z,88.63
2022-12-25T10:29:55.861Z,88.47
2022-12-25T10:31:04.279Z,88.28
2022-12-25T10:32:08.750Z,88.38
2022-12-25T10:33:17.047Z,88.52
2022-12-25T10:34:19.186Z,88.93
2022-12-25T10:35:25.031Z,89.24
2022-12-25T10:36:30.118Z,89.52
2022-12-25T10:37:32.966Z,89.34
2022-12-25T10:38:36.170Z,89.58
2022-12-25T10:39:45.856Z,89.90
2022-12-25T10:41:14.869Z,89.94
2022-12-25T10:42:38.703Z,90.21
2022-12-25T10:43:56.279Z,90.23
2022-12-25T10:45:01.817Z,90.30
2022-12-25T10:46:11.396Z,90.43
2022-12-25T10:47:18.399Z,90.18
2022-12-25T10:48:24.229Z,90.59
2022-12-25T10:49:30.304Z,90.71
2022-12-25T10:50:33.384Z,90.33
2022-12-25T10:51:37.853Z,90.72
2022-12-25T10:53:08.056Z,90.70
2022-12-25T10:54:29.709Z,90.94
2022-12-25T10:55:33.068Z,90.93
2022-12-25T10:56:35.219Z,90.37
2022-12-25T10:59:14.809Z,89.64
2022-12-25T11:00:23.924Z,89.80
2022-12-25T11:01:28.399Z,89.57
2022-12-25T11:02:37.886Z,89.23
2022-12-25T11:03:43.410Z,88.81
2022-12-25T11:04:46.516Z,89.12
2022-12-25T11:05:51.990Z,89.07
2022-12-25T11:07:06.940Z,89.23
2022-12-25T11:08:15.564Z,88.92
2022-12-25T11:09:18.388Z,89.28
2022-12-25T11:10:27.600Z,89.12
2022-12-25T11:11:30.655Z,88.57
2022-12-25T11:12:36.380Z,88.79
2022-12-25T11:13:48.655Z,88.71
2022-12-25T11:14:57.487Z,89.08
2022-12-25T11:16:06.263Z,89.56
2022-12-25T11:17:09.599Z,89.72
2022-12-25T11:18:27.309Z,89.97
2022-12-25T11:19:32.829Z,90.03
2022-12-25T11:20:36.742Z,90.18
2022-12-25T11:21:39.109Z,90.47
2022-12-25T11:22:45.011Z,90.87
2022-12-25T11:23:49.750Z,91.25
2022-12-25T11:24:52.059Z,91.40
2022-12-25T11:25:59.186Z,91.46
2022-12-25T11:27:05.820Z,91.28
2022-12-25T11:28:11.529Z,91.30
2022-12-25T11:29:18.518Z,91.30
2022-12-25T11:30:21.223Z,90.96
2022-12-25T11:31:27.135Z,90.34
2022-12-25T11:32:33.039Z,90.48
2022-12-25T11:33:38.989Z,90.13
2022-12-25T11:34:45.892Z,90.04
2022-12-25T11:35:52.457Z,89.82
2022-12-25T11:36:55.314Z,89.70
2022-12-25T11:37:57.729Z,89.98
2022-12-25T11:39:03.435Z,89.94
2022-12-25T11:40:08.717Z,89.94
2022-12-25T11:41:13.487Z,90.10
2022-12-25T11:42:34.807Z,89.91
2022-12-25T11:43:43.533Z,90.24
2022-12-25T11:45:05.113Z,90.14
2022-12-25T11:46:23.664Z,90.22
2022-12-25T11:47:32.621Z,90.81
2022-12-25T11:48:38.973Z,91.04
2022-12-25T11:50:00.534Z,90.81
2022-12-25T11:51:04.718Z,91.10
2022-12-25T11:52:11.540Z,91.31
2022-12-25T11:53:31.855Z,91.00
2022-12-25T11:54:37.864Z,90.63
2022-12-25T11:55:47.628Z,90.39
2022-12-25T11:56:51.553Z,90.29
2022-12-25T11:57:58.409Z,89.77
2022-12-25T11:59:07.253Z,89.63
2022-12-25T12:00:15.133Z,89.60
2022-12-25T12:01:51.028Z,89.49
2022-12-25T12:03:01.200Z,89.48
2022-12-25T12:04:10.822Z,89.92
2022-12-25T12:05:25.448Z,89.98
2022-12-25T12:07:01.341Z,89.72
2022-12-25T12:08:06.172Z,90.22
2022-12-25T12:09:20.751Z,89.98
2022-12-25T12:10:33.075Z,90.28
2022-12-25T12:11:38.990Z,90.19
2022-12-25T12:12:59.959Z,90.57
2022-12-25T12:14:37.023Z,90.52
2022-12-25T12:15:43.777Z,90.64
2022-12-25T12:16:46.992Z,92.10
2022-12-25T12:17:49.295Z,91.45
2022-12-25T12:18:52.208Z,92.04
2022-12-25T12:19:54.467Z,91.85
2022-12-25T12:21:06.174Z,91.98
2022-12-25T12:22:20.984Z,91.96
2022-12-25T12:23:23.718Z,91.86
2022-12-25T12:24:29.979Z,92.42
2022-12-25T12:25:36.732Z,91.81
2022-12-25T12:26:42.985Z,92.28
2022-12-25T12:27:45.480Z,92.50
2022-12-25T12:28:51.164Z,93.05
2022-12-25T12:29:57.721Z,93.11
2022-12-25T12:31:03.932Z,92.91
2022-12-25T12:32:09.887Z,92.45
2022-12-25T12:33:19.008Z,92.17
2022-12-25T12:34:25.135Z,92.42
2022-12-25T12:35:36.667Z,92.47
2022-12-25T12:36:39.807Z,91.91
2022-12-25T12:37:46.585Z,91.61
2022-12-25T12:38:49.516Z,91.54
2022-12-25T12:39:56.167Z,93.81
2022-12-25T12:41:06.505Z,93.61
2022-12-25T12:43:38.445Z,92.64
2022-12-25T12:44:42.760Z,92.05
2022-12-25T12:45:45.536Z,91.83
2022-12-25T12:46:57.372Z,91.10
2022-12-25T12:47:59.634Z,90.83
2022-12-25T12:49:27.144Z,90.10
2022-12-25T12:50:35.814Z,91.76
2022-12-25T12:51:38.568Z,91.96
2022-12-25T12:52:42.070Z,92.39
2022-12-25T12:53:44.460Z,92.54
2022-12-25T12:54:55.469Z,92.25
2022-12-25T12:56:12.379Z,91.67
2022-12-25T12:57:28.612Z,92.29
2022-12-25T12:58:33.280Z,91.99
2022-12-25T12:59:47.729Z,90.74
2022-12-25T13:01:10.540Z,90.84
2022-12-25T13:02:29.584Z,91.20
2022-12-25T13:03:52.689Z,90.86
2022-12-25T13:05:07.971Z,91.19
2022-12-25T13:06:31.092Z,90.82
2022-12-25T13:07:45.682Z,90.99
2022-12-25T13:08:51.459Z,90.95
2022-12-25T13:10:15.660Z,91.24
2022-12-25T13:11:21.493Z,90.77
2022-12-25T13:12:25.670Z,90.51
2022-12-25T13:13:36.808Z,90.47
2022-12-25T13:14:42.612Z,90.58
2022-12-25T13:15:47.690Z,92.14
2022-12-25T13:16:53.700Z,93.72
2022-12-25T13:18:02.386Z,94.77
2022-12-25T13:19:09.200Z,94.40
2022-12-25T13:20:15.339Z,94.50
2022-12-25T13:21:21.032Z,93.64
2022-12-25T13:22:26.867Z,93.20
2022-12-25T13:23:35.369Z,93.40
2022-12-25T13:24:37.775Z,92.67
2022-12-25T13:25:39.845Z,94.57
2022-12-25T13:26:42.141Z,93.42
2022-12-25T13:27:44.469Z,93.14
2022-12-25T13:28:46.986Z,92.36
2022-12-25T13:29:49.296Z,91.89
2022-12-25T13:30:54.194Z,91.86
2022-12-25T13:31:58.473Z,91.76
2022-12-25T13:33:01.008Z,91.61
2022-12-25T13:34:20.168Z,92.88
2022-12-25T13:35:23.240Z,92.35
2022-12-25T13:36:28.426Z,92.97
2022-12-25T13:37:32.383Z,93.27
2022-12-25T13:38:35.211Z,93.63
2022-12-25T13:39:43.241Z,93.40
2022-12-25T13:41:12.801Z,93.62
2022-12-25T13:42:20.037Z,93.61
2022-12-25T13:43:23.399Z,93.75
2022-12-25T13:44:28.965Z,93.76
2022-12-25T13:45:33.051Z,94.39
2022-12-25T13:46:35.303Z,94.62
2022-12-25T13:47:43.649Z,95.20
2022-12-25T13:48:49.429Z,95.17
2022-12-25T13:49:54.873Z,94.33
2022-12-25T13:51:00.102Z,93.55
2022-12-25T13:52:18.550Z,93.61
2022-12-25T13:53:22.342Z,93.66
2022-12-25T13:54:26.281Z,93.95
2022-12-25T13:55:30.486Z,94.17
2022-12-25T13:56:34.506Z,94.69
2022-12-25T13:57:43.119Z,94.62
2022-12-25T13:58:47.986Z,94.21
2022-12-25T13:59:51.456Z,93.84
2022-12-25T14:00:58.095Z,93.68
2022-12-25T14:02:01.244Z,93.55
2022-12-25T14:03:10.646Z,93.84
2022-12-25T14:04:21.647Z,93.75
2022-12-25T14:05:32.406Z,93.59
2022-12-25T14:06:34.482Z,94.72
2022-12-25T14:07:37.169Z,94.04
2022-12-25T14:08:40.769Z,93.80
2022-12-25T14:09:43.163Z,93.88
2022-12-25T14:10:49.882Z,94.04
2022-12-25T14:11:53.246Z,95.32
2022-12-25T14:12:59.736Z,94.84
2022-12-25T14:14:05.618Z,95.55
2022-12-25T14:15:11.502Z,96.32
2022-12-25T14:16:19.483Z,95.65
2022-12-25T14:17:23.226Z,95.09
2022-12-25T14:18:26.952Z,96.58
2022-12-25T14:19:34.992Z,96.13
2022-12-25T14:20:43.847Z,95.64
2022-12-25T14:21:48.644Z,94.93
2022-12-25T14:22:53.344Z,95.22
2022-12-25T14:23:55.823Z,95.06
2022-12-25T14:24:57.950Z,95.55
2022-12-25T14:26:01.077Z,96.22
2022-12-25T14:27:07.616Z,96.46
2022-12-25T14:28:20.222Z,95.48
2022-12-25T14:29:28.200Z,96.07
2022-12-25T14:30:29.531Z,95.82
2022-12-25T14:31:33.250Z,95.72
2022-12-25T14:32:39.177Z,95.72
2022-12-25T14:33:43.194Z,95.84
2022-12-25T14:34:49.407Z,96.48
2022-12-25T14:35:53.449Z,96.18
2022-12-25T14:36:56.295Z,95.92
2022-12-25T14:37:59.926Z,95.83